Winslow Lindbergh Regional Airport Winslow US
ICAO: KINW
IATA: INW
Category: Medium
Scheduled Services: No

Elevation: 4941 ft
TransAlt. 18000 ft.

Airport Communications:
ASOS:118.875
ALBUQUERQUE CNTR:124.5
PRESCOTT RDO:122.6
CTAF/UNICOM:122.8

KINW Zoom In..

Runways:

(A) RW 04 length 6236 ft width 75 ft
---- / hdg 45

(B) RW 11 length 7100 ft width 150 ft
---- / hdg 106

(C) RW 22 length 6236 ft width 75 ft
---- / hdg 225

(D) RW 29 length 7100 ft width 150 ft
---- / hdg 286

Location; KINW
Day. 01 / Time. 16.56 Zulu
* Altimeter: 30.22
* Temperature: 00° c. 32°f.
* Wind from: 000° Speed 00 kn.
Dewpoint: -08° c.
Visibility: 10 Statute Miles.
Clouds: Clear (automated report).

KINW 011656Z AUTO 00000KT 10SM CLR 00/M08 A3022 RMK AO2 SLP256 T00001078

Going to: --> -->


Wind - Calm.

 
 
jpsmedia worldairports.se 2020   terms of use